Norbank — PGIS — position and weather

sailwx.info

Track history (hours):
 
Tides and Currents Weather Stations Pressure Air Temp Water Temp Dewpoint Dewpoint Depression Visibility Wind Speed Wind Dir Waves Ship Positions

Norbank

Operator: P & O Ferries

Last reported at 2016-May-27 11:29 UTC. Time now 2016-May-27 14:16 UTC.
Position N 53°33' W 003°55'.

Length 167 m; draft 5.5 m.

Type: Ship (hazmat cat A). MMSI: 246213000.

Date/timePositionNaut miles runAvg speedWind from/ knotsBaromVisibWave heightAir tempDewpointWater temp
2016-May-27 11:29N 53°33' W 003°55'1718.4
2016-May-27 10:33N 53°33' W 003°26'1615.8
2016-May-27 09:33N 53°27' W 003°02'1 0.6
2016-May-27 08:33N 53°27' W 003°01'0 0.0
2016-May-27 07:31N 53°27' W 003°01'0 0.0
2016-May-27 06:31N 53°27' W 003°01'0 0.0
2016-May-27 05:31N 53°27' W 003°01'0 0.0
2016-May-27 04:33N 53°27' W 003°01'1 1.2
2016-May-27 03:33N 53°28' W 003°03'1616.4
2016-May-27 02:33N 53°31' W 003°30'2019.7
2016-May-27 01:33N 53°33' W 004°03'1918.6
2016-May-27 00:33N 53°36' W 004°34'28 2.1
2016-May-26 11:11N 53°33' W 003°48'1118.1
2016-May-26 10:33N 53°33' W 003°29'1615.8
2016-May-26 09:33N 53°28' W 003°03'2 1.6
2016-May-26 08:33N 53°27' W 003°01'0 0.0
2016-May-26 07:33N 53°27' W 003°01'0 0.0
2016-May-26 06:33N 53°27' W 003°01'0 0.0
2016-May-26 05:29N 53°27' W 003°01'0 0.0
2016-May-26 04:32N 53°27' W 003°01'1 1.3
2016-May-26 03:34N 53°28' W 003°03'1515.4
2016-May-26 02:33N 53°31' W 003°28'1919.2
2016-May-26 01:34N 53°33' W 004°00'8 0.6
2016-May-25 11:14N 53°34' W 003°47'1218.0
2016-May-25 10:33N 53°33' W 003°26'1615.5
2016-May-25 09:33N 53°27' W 003°02'1 0.7
2016-May-25 08:32N 53°27' W 003°01'0 0.0
2016-May-25 07:31N 53°27' W 003°01'0 0.0
2016-May-25 06:31N 53°27' W 003°01'0 0.0
2016-May-25 05:33N 53°27' W 003°01'0 0.0
2016-May-25 04:33N 53°27' W 003°01'1 0.6
2016-May-25 03:33N 53°27' W 003°01'1413.7
2016-May-25 02:33N 53°31' W 003°23'1615.6
2016-May-25 01:33N 53°32' W 003°49'36 2.9
2016-May-24 13:05N 53°32' W 004°51'1217.4
2016-May-24 12:24N 53°33' W 004°31'1517.4
2016-May-24 11:33N 53°33' W 004°06'1818.2
2016-May-24 10:33N 53°33' W 003°35'1717.4
2016-May-24 09:33N 53°31' W 003°06'5 4.7
2016-May-24 08:33N 53°27' W 003°01'0 0.0
2016-May-24 07:33N 53°27' W 003°01'0 0.0
2016-May-24 06:33N 53°27' W 003°01'0 0.0
2016-May-24 05:29N 53°27' W 003°01'0 0.0
2016-May-24 04:32N 53°27' W 003°01'1 0.6
2016-May-24 03:33N 53°27' W 003°02'1110.6
2016-May-24 02:34N 53°31' W 003°18'1616.2
2016-May-24 01:34N 53°31' W 003°46'1616.1
2016-May-24 00:33N 53°35' W 004°12'1616.4
2016-May-23 23:33N 53°36' W 004°40'35 1.4
2016-May-22 22:33N 53°33' W 003°41'1817.8
2016-May-22 21:33N 53°32' W 003°11'8 7.7
2016-May-22 20:33N 53°27' W 003°01'0 0.4
2016-May-22 19:33N 53°27' W 003°01'0 0.0
2016-May-22 18:33N 53°27' W 003°01'0 0.0
2016-May-22 17:33N 53°27' W 003°01'0 0.0
2016-May-22 16:29N 53°27' W 003°01'0 0.0
2016-May-22 15:32N 53°27' W 003°01'0 0.0
2016-May-22 14:31N 53°27' W 003°01'0 0.0
2016-May-22 13:31N 53°27' W 003°01'0 0.0
2016-May-22 12:33N 53°27' W 003°01'0 0.0
2016-May-22 11:30N 53°27' W 003°01'0 0.0
2016-May-22 10:30N 53°27' W 003°01'0 0.0
2016-May-22 09:32N 53°27' W 003°01'0 0.0
2016-May-22 08:33N 53°27' W 003°01'0 0.0
2016-May-22 07:32N 53°27' W 003°01'0 0.0
2016-May-22 06:32N 53°27' W 003°01'0 0.0
2016-May-22 05:31N 53°27' W 003°01'0 0.5
2016-May-22 04:32N 53°27' W 003°01'5 5.6
2016-May-22 03:33N 53°31' W 003°07'1515.3
2016-May-22 02:33N 53°31' W 003°33'1716.6
2016-May-22 01:33N 53°33' W 004°01'12 0.9
2016-May-21 11:33N 53°33' W 003°40'1919.0
2016-May-21 10:33N 53°32' W 003°08'7 7.1
2016-May-21 09:33N 53°26' W 003°01'1 1.1
2016-May-21 08:32N 53°27' W 003°01'0 0.0
2016-May-21 07:25N 53°27' W 003°01'0 0.0
2016-May-21 06:31N 53°27' W 003°01'0 0.0
2016-May-21 05:30N 53°27' W 003°01'0 0.5
2016-May-21 04:33N 53°27' W 003°01'4 4.4
2016-May-21 03:33N 53°30' W 003°06'1211.9
2016-May-21 02:33N 53°31' W 003°26'1414.5
2016-May-21 01:33N 53°32' W 003°50'3 0.2
2016-May-20 11:22N 53°33' W 003°54'1417.4
2016-May-20 10:33N 53°33' W 003°31'1616.2
2016-May-20 09:33N 53°29' W 003°04'2 2.3
2016-May-20 08:33N 53°27' W 003°01'0 0.0
2016-May-20 07:33N 53°27' W 003°01'0 0.0
2016-May-20 06:32N 53°27' W 003°01'0 0.0
2016-May-20 05:32N 53°27' W 003°01'0 0.0
2016-May-20 04:32N 53°27' W 003°01'1 0.6
2016-May-20 03:33N 53°27' W 003°01'1111.0
2016-May-20 02:33N 53°31' W 003°18'1818.0
2016-May-20 01:33N 53°32' W 003°49'1817.8
2016-May-20 00:33N 53°35' W 004°18'13 0.9
2016-May-19 11:16N 53°34' W 003°57'1217.5
2016-May-19 10:33N 53°33' W 003°36'1817.5
2016-May-19 09:33N 53°31' W 003°07'5 5.1
2016-May-19 08:33N 53°27' W 003°01'0 0.0
2016-May-19 07:33N 53°27' W 003°01'0 0.0
2016-May-19 06:30N 53°27' W 003°01'0 0.0
2016-May-19 05:33N 53°27' W 003°01'0 0.0
2016-May-19 04:32N 53°27' W 003°01'1 0.6
2016-May-19 03:34N 53°27' W 003°01'1413.6
2016-May-19 02:33N 53°31' W 003°23'1818.2
2016-May-19 01:33N 53°32' W 003°53'3 0.2
2016-May-18 11:23N 53°33' W 003°50'1518.1
2016-May-18 10:33N 53°33' W 003°25'1515.1
2016-May-18 09:33N 53°27' W 003°01'1 0.7
2016-May-18 08:34N 53°27' W 003°01'0 0.0
2016-May-18 07:31N 53°27' W 003°01'0 0.0
2016-May-18 06:33N 53°27' W 003°01'0 0.0
2016-May-18 05:33N 53°27' W 003°01'0 0.0
2016-May-18 04:32N 53°27' W 003°01'0 0.5
2016-May-18 03:33N 53°27' W 003°01'1111.0
2016-May-18 02:33N 53°31' W 003°18'1717.6
2016-May-18 01:34N 53°32' W 003°48'  
Track history (hours):
 
Tides and Currents Weather Stations Pressure Air Temp Water Temp Dewpoint Dewpoint Depression Visibility Wind Speed Wind Dir Waves Ship Positions

Norbank

Operator: P & O Ferries

Last reported at 2016-May-27 11:29 UTC. Time now 2016-May-27 14:16 UTC.
Position N 53°33' W 003°55'.

Length 167 m; draft 5.5 m.

Type: Ship (hazmat cat A). MMSI: 246213000.

Date/timePositionNaut miles runAvg speedWind from/ knotsBaromVisibWave heightAir tempDewpointWater temp
2016-May-27 11:29N 53°33' W 003°55'1718.4
2016-May-27 10:33N 53°33' W 003°26'1615.8
2016-May-27 09:33N 53°27' W 003°02'1 0.6
2016-May-27 08:33N 53°27' W 003°01'0 0.0
2016-May-27 07:31N 53°27' W 003°01'0 0.0
2016-May-27 06:31N 53°27' W 003°01'0 0.0
2016-May-27 05:31N 53°27' W 003°01'0 0.0
2016-May-27 04:33N 53°27' W 003°01'1 1.2
2016-May-27 03:33N 53°28' W 003°03'1616.4
2016-May-27 02:33N 53°31' W 003°30'2019.7
2016-May-27 01:33N 53°33' W 004°03'1918.6
2016-May-27 00:33N 53°36' W 004°34'28 2.1
2016-May-26 11:11N 53°33' W 003°48'1118.1
2016-May-26 10:33N 53°33' W 003°29'1615.8
2016-May-26 09:33N 53°28' W 003°03'2 1.6
2016-May-26 08:33N 53°27' W 003°01'0 0.0
2016-May-26 07:33N 53°27' W 003°01'0 0.0
2016-May-26 06:33N 53°27' W 003°01'0 0.0
2016-May-26 05:29N 53°27' W 003°01'0 0.0
2016-May-26 04:32N 53°27' W 003°01'1 1.3
2016-May-26 03:34N 53°28' W 003°03'1515.4
2016-May-26 02:33N 53°31' W 003°28'1919.2
2016-May-26 01:34N 53°33' W 004°00'8 0.6
2016-May-25 11:14N 53°34' W 003°47'1218.0
2016-May-25 10:33N 53°33' W 003°26'1615.5
2016-May-25 09:33N 53°27' W 003°02'1 0.7
2016-May-25 08:32N 53°27' W 003°01'0 0.0
2016-May-25 07:31N 53°27' W 003°01'0 0.0
2016-May-25 06:31N 53°27' W 003°01'0 0.0
2016-May-25 05:33N 53°27' W 003°01'0 0.0
2016-May-25 04:33N 53°27' W 003°01'1 0.6
2016-May-25 03:33N 53°27' W 003°01'1413.7
2016-May-25 02:33N 53°31' W 003°23'1615.6
2016-May-25 01:33N 53°32' W 003°49'36 2.9
2016-May-24 13:05N 53°32' W 004°51'1217.4
2016-May-24 12:24N 53°33' W 004°31'1517.4
2016-May-24 11:33N 53°33' W 004°06'1818.2
2016-May-24 10:33N 53°33' W 003°35'1717.4
2016-May-24 09:33N 53°31' W 003°06'5 4.7
2016-May-24 08:33N 53°27' W 003°01'0 0.0
2016-May-24 07:33N 53°27' W 003°01'0 0.0
2016-May-24 06:33N 53°27' W 003°01'0 0.0
2016-May-24 05:29N 53°27' W 003°01'0 0.0
2016-May-24 04:32N 53°27' W 003°01'1 0.6
2016-May-24 03:33N 53°27' W 003°02'1110.6
2016-May-24 02:34N 53°31' W 003°18'1616.2
2016-May-24 01:34N 53°31' W 003°46'1616.1
2016-May-24 00:33N 53°35' W 004°12'1616.4
2016-May-23 23:33N 53°36' W 004°40'35 1.4
2016-May-22 22:33N 53°33' W 003°41'1817.8
2016-May-22 21:33N 53°32' W 003°11'8 7.7
2016-May-22 20:33N 53°27' W 003°01'0 0.4
2016-May-22 19:33N 53°27' W 003°01'0 0.0
2016-May-22 18:33N 53°27' W 003°01'0 0.0
2016-May-22 17:33N 53°27' W 003°01'0 0.0
2016-May-22 16:29N 53°27' W 003°01'0 0.0
2016-May-22 15:32N 53°27' W 003°01'0 0.0
2016-May-22 14:31N 53°27' W 003°01'0 0.0
2016-May-22 13:31N 53°27' W 003°01'0 0.0
2016-May-22 12:33N 53°27' W 003°01'0 0.0
2016-May-22 11:30N 53°27' W 003°01'0 0.0
2016-May-22 10:30N 53°27' W 003°01'0 0.0
2016-May-22 09:32N 53°27' W 003°01'0 0.0
2016-May-22 08:33N 53°27' W 003°01'0 0.0
2016-May-22 07:32N 53°27' W 003°01'0 0.0
2016-May-22 06:32N 53°27' W 003°01'0 0.0
2016-May-22 05:31N 53°27' W 003°01'0 0.5
2016-May-22 04:32N 53°27' W 003°01'5 5.6
2016-May-22 03:33N 53°31' W 003°07'1515.3
2016-May-22 02:33N 53°31' W 003°33'1716.6
2016-May-22 01:33N 53°33' W 004°01'12 0.9
2016-May-21 11:33N 53°33' W 003°40'1919.0
2016-May-21 10:33N 53°32' W 003°08'7 7.1
2016-May-21 09:33N 53°26' W 003°01'1 1.1
2016-May-21 08:32N 53°27' W 003°01'0 0.0
2016-May-21 07:25N 53°27' W 003°01'0 0.0
2016-May-21 06:31N 53°27' W 003°01'0 0.0
2016-May-21 05:30N 53°27' W 003°01'0 0.5
2016-May-21 04:33N 53°27' W 003°01'4 4.4
2016-May-21 03:33N 53°30' W 003°06'1211.9
2016-May-21 02:33N 53°31' W 003°26'1414.5
2016-May-21 01:33N 53°32' W 003°50'3 0.2
2016-May-20 11:22N 53°33' W 003°54'1417.4
2016-May-20 10:33N 53°33' W 003°31'1616.2
2016-May-20 09:33N 53°29' W 003°04'2 2.3
2016-May-20 08:33N 53°27' W 003°01'0 0.0
2016-May-20 07:33N 53°27' W 003°01'0 0.0
2016-May-20 06:32N 53°27' W 003°01'0 0.0
2016-May-20 05:32N 53°27' W 003°01'0 0.0
2016-May-20 04:32N 53°27' W 003°01'1 0.6
2016-May-20 03:33N 53°27' W 003°01'1111.0
2016-May-20 02:33N 53°31' W 003°18'1818.0
2016-May-20 01:33N 53°32' W 003°49'1817.8
2016-May-20 00:33N 53°35' W 004°18'13 0.9
2016-May-19 11:16N 53°34' W 003°57'1217.5
2016-May-19 10:33N 53°33' W 003°36'1817.5
2016-May-19 09:33N 53°31' W 003°07'5 5.1
2016-May-19 08:33N 53°27' W 003°01'0 0.0
2016-May-19 07:33N 53°27' W 003°01'0 0.0
2016-May-19 06:30N 53°27' W 003°01'0 0.0
2016-May-19 05:33N 53°27' W 003°01'0 0.0
2016-May-19 04:32N 53°27' W 003°01'1 0.6
2016-May-19 03:34N 53°27' W 003°01'1413.6
2016-May-19 02:33N 53°31' W 003°23'1818.2
2016-May-19 01:33N 53°32' W 003°53'3 0.2
2016-May-18 11:23N 53°33' W 003°50'1518.1
2016-May-18 10:33N 53°33' W 003°25'1515.1
2016-May-18 09:33N 53°27' W 003°01'1 0.7
2016-May-18 08:34N 53°27' W 003°01'0 0.0
2016-May-18 07:31N 53°27' W 003°01'0 0.0
2016-May-18 06:33N 53°27' W 003°01'0 0.0
2016-May-18 05:33N 53°27' W 003°01'0 0.0
2016-May-18 04:32N 53°27' W 003°01'0 0.5
2016-May-18 03:33N 53°27' W 003°01'1111.0
2016-May-18 02:33N 53°31' W 003°18'1717.6
2016-May-18 01:34N 53°32' W 003°48'  

Dump ship's entire track history